sensor_id;sensor_type;location;lat;lon;timestamp;temperature;humidity
4107;DHT22;21906;50.812;7.132;2022-07-29T00:00:43;20.50;55.70
4107;DHT22;21906;50.812;7.132;2022-07-29T00:03:13;20.40;55.00
4107;DHT22;21906;50.812;7.132;2022-07-29T00:05:40;20.40;54.50
4107;DHT22;21906;50.812;7.132;2022-07-29T00:08:06;20.40;54.00
4107;DHT22;21906;50.812;7.132;2022-07-29T00:10:32;20.40;54.60
4107;DHT22;21906;50.812;7.132;2022-07-29T00:12:58;20.40;55.40
4107;DHT22;21906;50.812;7.132;2022-07-29T00:15:24;20.40;55.30
4107;DHT22;21906;50.812;7.132;2022-07-29T00:17:49;20.40;54.50
4107;DHT22;21906;50.812;7.132;2022-07-29T00:20:15;20.40;54.10
4107;DHT22;21906;50.812;7.132;2022-07-29T00:22:41;20.30;54.50
4107;DHT22;21906;50.812;7.132;2022-07-29T00:25:07;20.40;54.90
4107;DHT22;21906;50.812;7.132;2022-07-29T00:27:34;20.30;54.70
4107;DHT22;21906;50.812;7.132;2022-07-29T00:30:00;20.40;55.40
4107;DHT22;21906;50.812;7.132;2022-07-29T00:32:26;20.40;55.70
4107;DHT22;21906;50.812;7.132;2022-07-29T00:34:51;20.40;55.50
4107;DHT22;21906;50.812;7.132;2022-07-29T00:37:36;20.40;55.60
4107;DHT22;21906;50.812;7.132;2022-07-29T00:40:02;20.40;55.50
4107;DHT22;21906;50.812;7.132;2022-07-29T00:42:27;20.40;55.50
4107;DHT22;21906;50.812;7.132;2022-07-29T00:44:53;20.40;55.40
4107;DHT22;21906;50.812;7.132;2022-07-29T00:47:19;20.40;55.20
4107;DHT22;21906;50.812;7.132;2022-07-29T00:49:45;20.30;55.80
4107;DHT22;21906;50.812;7.132;2022-07-29T00:52:11;20.30;55.60
4107;DHT22;21906;50.812;7.132;2022-07-29T00:54:38;20.30;56.10
4107;DHT22;21906;50.812;7.132;2022-07-29T00:57:06;20.30;56.00
4107;DHT22;21906;50.812;7.132;2022-07-29T00:59:32;20.30;55.70
4107;DHT22;21906;50.812;7.132;2022-07-29T01:01:57;20.20;55.80
4107;DHT22;21906;50.812;7.132;2022-07-29T01:04:23;20.20;55.70
4107;DHT22;21906;50.812;7.132;2022-07-29T01:06:49;20.20;56.40
4107;DHT22;21906;50.812;7.132;2022-07-29T01:09:17;20.20;56.60
4107;DHT22;21906;50.812;7.132;2022-07-29T01:11:44;20.20;56.50
4107;DHT22;21906;50.812;7.132;2022-07-29T01:14:11;20.20;56.70
4107;DHT22;21906;50.812;7.132;2022-07-29T01:17:00;20.20;56.90
4107;DHT22;21906;50.812;7.132;2022-07-29T01:29:58;20.10;57.30
4107;DHT22;21906;50.812;7.132;2022-07-29T01:32:28;20.10;57.30
4107;DHT22;21906;50.812;7.132;2022-07-29T01:35:15;20.10;57.20
4107;DHT22;21906;50.812;7.132;2022-07-29T01:37:50;20.10;56.90
4107;DHT22;21906;50.812;7.132;2022-07-29T01:40:49;20.10;56.90
4107;DHT22;21906;50.812;7.132;2022-07-29T01:43:20;20.10;56.90
4107;DHT22;21906;50.812;7.132;2022-07-29T01:46:04;20.10;57.20
4107;DHT22;21906;50.812;7.132;2022-07-29T01:48:39;20.10;57.40
4107;DHT22;21906;50.812;7.132;2022-07-29T01:51:25;20.10;57.30
4107;DHT22;21906;50.812;7.132;2022-07-29T01:54:06;20.10;57.40
4107;DHT22;21906;50.812;7.132;2022-07-29T01:56:35;20.00;57.60
4107;DHT22;21906;50.812;7.132;2022-07-29T01:59:03;20.00;58.00
4107;DHT22;21906;50.812;7.132;2022-07-29T02:01:31;20.00;58.00
4107;DHT22;21906;50.812;7.132;2022-07-29T02:03:59;20.00;58.20
4107;DHT22;21906;50.812;7.132;2022-07-29T02:06:28;20.00;58.30
4107;DHT22;21906;50.812;7.132;2022-07-29T02:08:56;20.00;58.30
4107;DHT22;21906;50.812;7.132;2022-07-29T02:11:23;19.90;58.50
4107;DHT22;21906;50.812;7.132;2022-07-29T02:13:50;19.90;58.50
4107;DHT22;21906;50.812;7.132;2022-07-29T02:16:21;19.90;58.90
4107;DHT22;21906;50.812;7.132;2022-07-29T02:18:51;19.90;58.90
4107;DHT22;21906;50.812;7.132;2022-07-29T02:21:23;19.80;59.00
4107;DHT22;21906;50.812;7.132;2022-07-29T02:23:51;19.80;59.30
4107;DHT22;21906;50.812;7.132;2022-07-29T02:26:19;19.70;59.50
4107;DHT22;21906;50.812;7.132;2022-07-29T02:28:46;19.60;59.60
4107;DHT22;21906;50.812;7.132;2022-07-29T02:31:12;19.60;59.80
4107;DHT22;21906;50.812;7.132;2022-07-29T02:33:40;19.50;59.80
4107;DHT22;21906;50.812;7.132;2022-07-29T02:36:06;19.50;59.90
4107;DHT22;21906;50.812;7.132;2022-07-29T02:38:34;19.50;60.20
4107;DHT22;21906;50.812;7.132;2022-07-29T02:41:18;19.50;60.20
4107;DHT22;21906;50.812;7.132;2022-07-29T02:43:47;19.40;60.40
4107;DHT22;21906;50.812;7.132;2022-07-29T02:46:18;19.30;60.60
4107;DHT22;21906;50.812;7.132;2022-07-29T02:49:02;19.30;60.80
4107;DHT22;21906;50.812;7.132;2022-07-29T02:51:39;19.30;61.00
4107;DHT22;21906;50.812;7.132;2022-07-29T02:54:07;19.30;61.10
4107;DHT22;21906;50.812;7.132;2022-07-29T02:56:35;19.30;61.30
4107;DHT22;21906;50.812;7.132;2022-07-29T02:59:06;19.20;61.40
4107;DHT22;21906;50.812;7.132;2022-07-29T03:01:33;19.20;61.60
4107;DHT22;21906;50.812;7.132;2022-07-29T03:04:03;19.20;62.00
4107;DHT22;21906;50.812;7.132;2022-07-29T03:06:30;19.30;62.10
4107;DHT22;21906;50.812;7.132;2022-07-29T03:08:57;19.20;62.30
4107;DHT22;21906;50.812;7.132;2022-07-29T03:11:24;19.20;62.40
4107;DHT22;21906;50.812;7.132;2022-07-29T03:13:50;19.10;62.90
4107;DHT22;21906;50.812;7.132;2022-07-29T03:16:18;19.00;62.80
4107;DHT22;21906;50.812;7.132;2022-07-29T03:18:44;19.10;63.00
4107;DHT22;21906;50.812;7.132;2022-07-29T03:21:10;19.10;62.90
4107;DHT22;21906;50.812;7.132;2022-07-29T03:23:36;19.10;62.70
4107;DHT22;21906;50.812;7.132;2022-07-29T03:26:01;19.10;62.50
4107;DHT22;21906;50.812;7.132;2022-07-29T03:28:27;18.90;63.10
4107;DHT22;21906;50.812;7.132;2022-07-29T03:30:53;19.00;63.30
4107;DHT22;21906;50.812;7.132;2022-07-29T03:33:19;19.00;63.40
4107;DHT22;21906;50.812;7.132;2022-07-29T03:35:44;19.00;63.40
4107;DHT22;21906;50.812;7.132;2022-07-29T03:38:10;18.90;63.70
4107;DHT22;21906;50.812;7.132;2022-07-29T03:40:56;19.00;63.90
4107;DHT22;21906;50.812;7.132;2022-07-29T03:43:24;19.00;63.70
4107;DHT22;21906;50.812;7.132;2022-07-29T03:45:52;19.00;63.40
4107;DHT22;21906;50.812;7.132;2022-07-29T03:48:21;19.00;63.80
4107;DHT22;21906;50.812;7.132;2022-07-29T03:50:47;19.00;63.60
4107;DHT22;21906;50.812;7.132;2022-07-29T03:53:14;19.00;63.30
4107;DHT22;21906;50.812;7.132;2022-07-29T03:55:50;19.00;63.50
4107;DHT22;21906;50.812;7.132;2022-07-29T03:58:18;19.00;63.70
4107;DHT22;21906;50.812;7.132;2022-07-29T04:00:45;19.00;63.70
4107;DHT22;21906;50.812;7.132;2022-07-29T04:03:12;19.00;63.70
4107;DHT22;21906;50.812;7.132;2022-07-29T04:05:38;18.90;63.80
4107;DHT22;21906;50.812;7.132;2022-07-29T04:08:04;18.90;63.70
4107;DHT22;21906;50.812;7.132;2022-07-29T04:10:29;18.90;64.00
4107;DHT22;21906;50.812;7.132;2022-07-29T04:12:55;19.00;63.90
4107;DHT22;21906;50.812;7.132;2022-07-29T04:15:21;18.90;64.00
4107;DHT22;21906;50.812;7.132;2022-07-29T04:17:46;18.90;63.90
4107;DHT22;21906;50.812;7.132;2022-07-29T04:20:12;18.90;64.00
4107;DHT22;21906;50.812;7.132;2022-07-29T04:22:39;18.90;64.00
4107;DHT22;21906;50.812;7.132;2022-07-29T04:25:05;18.90;63.70
4107;DHT22;21906;50.812;7.132;2022-07-29T04:27:31;18.90;63.50
4107;DHT22;21906;50.812;7.132;2022-07-29T04:29:56;18.90;63.40
4107;DHT22;21906;50.812;7.132;2022-07-29T04:32:22;18.90;63.30
4107;DHT22;21906;50.812;7.132;2022-07-29T04:34:48;18.90;63.00
4107;DHT22;21906;50.812;7.132;2022-07-29T04:37:14;18.90;63.00
4107;DHT22;21906;50.812;7.132;2022-07-29T04:39:39;18.90;63.10
4107;DHT22;21906;50.812;7.132;2022-07-29T04:42:05;18.90;62.80
4107;DHT22;21906;50.812;7.132;2022-07-29T04:44:31;18.90;62.00
4107;DHT22;21906;50.812;7.132;2022-07-29T04:46:57;18.80;61.00
4107;DHT22;21906;50.812;7.132;2022-07-29T04:49:23;18.90;60.50
4107;DHT22;21906;50.812;7.132;2022-07-29T04:51:48;18.90;60.20
4107;DHT22;21906;50.812;7.132;2022-07-29T04:54:14;18.90;60.40
4107;DHT22;21906;50.812;7.132;2022-07-29T04:56:40;18.90;60.10
4107;DHT22;21906;50.812;7.132;2022-07-29T04:59:07;18.90;59.30
4107;DHT22;21906;50.812;7.132;2022-07-29T05:01:34;18.90;59.30
4107;DHT22;21906;50.812;7.132;2022-07-29T05:03:59;19.00;58.90
4107;DHT22;21906;50.812;7.132;2022-07-29T05:06:25;19.00;59.00
4107;DHT22;21906;50.812;7.132;2022-07-29T05:08:50;19.00;58.70
4107;DHT22;21906;50.812;7.132;2022-07-29T05:11:16;19.10;58.70
4107;DHT22;21906;50.812;7.132;2022-07-29T05:13:42;19.20;58.60
4107;DHT22;21906;50.812;7.132;2022-07-29T05:16:08;19.30;57.90
4107;DHT22;21906;50.812;7.132;2022-07-29T05:18:34;19.30;57.80
4107;DHT22;21906;50.812;7.132;2022-07-29T05:20:59;19.30;58.30
4107;DHT22;21906;50.812;7.132;2022-07-29T05:23:25;19.30;58.30
4107;DHT22;21906;50.812;7.132;2022-07-29T05:25:51;19.40;57.80
4107;DHT22;21906;50.812;7.132;2022-07-29T05:28:16;19.50;57.60
4107;DHT22;21906;50.812;7.132;2022-07-29T05:30:42;19.60;57.20
4107;DHT22;21906;50.812;7.132;2022-07-29T05:33:10;19.70;56.80
4107;DHT22;21906;50.812;7.132;2022-07-29T05:35:36;19.80;56.80
4107;DHT22;21906;50.812;7.132;2022-07-29T05:38:03;19.80;55.80
4107;DHT22;21906;50.812;7.132;2022-07-29T05:40:29;19.90;56.00
4107;DHT22;21906;50.812;7.132;2022-07-29T05:42:55;19.90;56.20
4107;DHT22;21906;50.812;7.132;2022-07-29T05:45:20;20.10;56.00
4107;DHT22;21906;50.812;7.132;2022-07-29T05:47:46;20.10;54.80
4107;DHT22;21906;50.812;7.132;2022-07-29T05:50:12;20.10;55.20
4107;DHT22;21906;50.812;7.132;2022-07-29T05:52:38;20.20;54.70
4107;DHT22;21906;50.812;7.132;2022-07-29T05:55:04;20.30;54.60
4107;DHT22;21906;50.812;7.132;2022-07-29T05:57:31;20.40;54.30
4107;DHT22;21906;50.812;7.132;2022-07-29T05:59:57;20.40;53.70
4107;DHT22;21906;50.812;7.132;2022-07-29T06:02:23;20.50;53.60
4107;DHT22;21906;50.812;7.132;2022-07-29T06:04:49;20.50;53.60
4107;DHT22;21906;50.812;7.132;2022-07-29T06:07:15;20.60;53.60
4107;DHT22;21906;50.812;7.132;2022-07-29T06:09:42;20.60;53.00
4107;DHT22;21906;50.812;7.132;2022-07-29T06:12:08;20.70;52.80
4107;DHT22;21906;50.812;7.132;2022-07-29T06:14:34;20.70;52.10
4107;DHT22;21906;50.812;7.132;2022-07-29T06:17:00;20.70;52.10
4107;DHT22;21906;50.812;7.132;2022-07-29T06:19:26;20.80;52.00
4107;DHT22;21906;50.812;7.132;2022-07-29T06:21:51;20.80;52.20
4107;DHT22;21906;50.812;7.132;2022-07-29T06:24:17;20.70;52.30
4107;DHT22;21906;50.812;7.132;2022-07-29T06:26:43;20.80;52.70
4107;DHT22;21906;50.812;7.132;2022-07-29T06:29:09;20.90;52.60
4107;DHT22;21906;50.812;7.132;2022-07-29T06:31:38;20.90;52.20
4107;DHT22;21906;50.812;7.132;2022-07-29T06:34:04;20.90;51.60
4107;DHT22;21906;50.812;7.132;2022-07-29T06:36:29;20.90;51.70
4107;DHT22;21906;50.812;7.132;2022-07-29T06:38:55;21.10;51.70
4107;DHT22;21906;50.812;7.132;2022-07-29T06:41:21;21.20;51.30
4107;DHT22;21906;50.812;7.132;2022-07-29T06:43:48;21.20;51.10
4107;DHT22;21906;50.812;7.132;2022-07-29T06:46:15;21.30;51.00
4107;DHT22;21906;50.812;7.132;2022-07-29T06:48:43;21.40;50.40
4107;DHT22;21906;50.812;7.132;2022-07-29T06:51:09;21.50;50.30
4107;DHT22;21906;50.812;7.132;2022-07-29T06:53:36;21.70;50.10
4107;DHT22;21906;50.812;7.132;2022-07-29T06:56:03;21.80;50.10
4107;DHT22;21906;50.812;7.132;2022-07-29T06:58:29;21.90;49.60
4107;DHT22;21906;50.812;7.132;2022-07-29T07:00:57;21.90;49.80
4107;DHT22;21906;50.812;7.132;2022-07-29T07:03:23;21.80;49.20
4107;DHT22;21906;50.812;7.132;2022-07-29T07:05:49;21.80;50.60
4107;DHT22;21906;50.812;7.132;2022-07-29T07:08:15;21.80;50.40
4107;DHT22;21906;50.812;7.132;2022-07-29T07:10:42;21.90;50.60
4107;DHT22;21906;50.812;7.132;2022-07-29T07:13:08;21.90;50.70
4107;DHT22;21906;50.812;7.132;2022-07-29T07:15:35;21.90;50.60
4107;DHT22;21906;50.812;7.132;2022-07-29T07:18:02;22.10;51.70
4107;DHT22;21906;50.812;7.132;2022-07-29T07:20:28;22.30;50.50
4107;DHT22;21906;50.812;7.132;2022-07-29T07:22:53;22.40;50.70
4107;DHT22;21906;50.812;7.132;2022-07-29T07:25:19;22.40;49.90
4107;DHT22;21906;50.812;7.132;2022-07-29T07:27:45;22.30;49.40
4107;DHT22;21906;50.812;7.132;2022-07-29T07:30:11;22.20;49.40
4107;DHT22;21906;50.812;7.132;2022-07-29T07:32:36;22.20;49.80
4107;DHT22;21906;50.812;7.132;2022-07-29T07:35:04;22.10;49.50
4107;DHT22;21906;50.812;7.132;2022-07-29T07:37:30;22.10;50.10
4107;DHT22;21906;50.812;7.132;2022-07-29T07:39:56;22.20;49.90
4107;DHT22;21906;50.812;7.132;2022-07-29T07:42:21;22.10;49.90
4107;DHT22;21906;50.812;7.132;2022-07-29T07:44:47;22.10;50.30
4107;DHT22;21906;50.812;7.132;2022-07-29T07:47:14;22.20;50.20
4107;DHT22;21906;50.812;7.132;2022-07-29T07:49:40;22.20;50.30
4107;DHT22;21906;50.812;7.132;2022-07-29T07:52:06;22.20;49.90
4107;DHT22;21906;50.812;7.132;2022-07-29T07:54:32;22.30;49.30
4107;DHT22;21906;50.812;7.132;2022-07-29T07:56:57;22.30;49.70
4107;DHT22;21906;50.812;7.132;2022-07-29T07:59:23;22.40;49.70
4107;DHT22;21906;50.812;7.132;2022-07-29T08:01:49;22.40;50.30
4107;DHT22;21906;50.812;7.132;2022-07-29T08:04:15;22.50;50.20
4107;DHT22;21906;50.812;7.132;2022-07-29T08:06:41;22.60;49.50
4107;DHT22;21906;50.812;7.132;2022-07-29T08:09:06;22.60;49.60
4107;DHT22;21906;50.812;7.132;2022-07-29T08:11:32;22.60;49.60
4107;DHT22;21906;50.812;7.132;2022-07-29T08:13:58;22.70;49.70
4107;DHT22;21906;50.812;7.132;2022-07-29T08:16:24;22.80;49.30
4107;DHT22;21906;50.812;7.132;2022-07-29T08:18:50;22.90;49.80
4107;DHT22;21906;50.812;7.132;2022-07-29T08:21:17;22.90;48.90
4107;DHT22;21906;50.812;7.132;2022-07-29T08:23:44;23.00;48.80
4107;DHT22;21906;50.812;7.132;2022-07-29T08:26:19;23.20;48.00
4107;DHT22;21906;50.812;7.132;2022-07-29T08:28:46;23.40;47.30
4107;DHT22;21906;50.812;7.132;2022-07-29T08:31:15;23.60;46.70
4107;DHT22;21906;50.812;7.132;2022-07-29T08:33:41;23.60;46.60
4107;DHT22;21906;50.812;7.132;2022-07-29T08:36:07;23.60;47.20
4107;DHT22;21906;50.812;7.132;2022-07-29T08:38:33;23.60;47.00
4107;DHT22;21906;50.812;7.132;2022-07-29T08:41:00;23.70;47.30
4107;DHT22;21906;50.812;7.132;2022-07-29T08:43:27;23.70;46.60
4107;DHT22;21906;50.812;7.132;2022-07-29T08:45:53;23.50;46.70
4107;DHT22;21906;50.812;7.132;2022-07-29T08:48:21;23.60;46.90
4107;DHT22;21906;50.812;7.132;2022-07-29T08:50:50;23.70;46.70
4107;DHT22;21906;50.812;7.132;2022-07-29T08:53:18;23.70;46.60
4107;DHT22;21906;50.812;7.132;2022-07-29T08:55:47;23.70;46.80
4107;DHT22;21906;50.812;7.132;2022-07-29T08:58:14;23.80;46.40
4107;DHT22;21906;50.812;7.132;2022-07-29T09:00:51;23.80;46.30
4107;DHT22;21906;50.812;7.132;2022-07-29T09:03:22;23.90;46.20
4107;DHT22;21906;50.812;7.132;2022-07-29T09:05:49;23.90;46.10
4107;DHT22;21906;50.812;7.132;2022-07-29T09:08:16;23.90;46.30
4107;DHT22;21906;50.812;7.132;2022-07-29T09:10:43;23.90;45.90
4107;DHT22;21906;50.812;7.132;2022-07-29T09:13:09;23.90;45.90
4107;DHT22;21906;50.812;7.132;2022-07-29T09:15:35;23.90;46.10
4107;DHT22;21906;50.812;7.132;2022-07-29T09:18:00;23.90;45.60
4107;DHT22;21906;50.812;7.132;2022-07-29T09:20:27;23.90;46.00
4107;DHT22;21906;50.812;7.132;2022-07-29T09:23:14;24.00;46.30
4107;DHT22;21906;50.812;7.132;2022-07-29T09:25:40;24.20;45.50
4107;DHT22;21906;50.812;7.132;2022-07-29T09:28:14;24.20;46.60
4107;DHT22;21906;50.812;7.132;2022-07-29T09:30:53;24.40;45.70
4107;DHT22;21906;50.812;7.132;2022-07-29T09:33:20;24.50;46.30
4107;DHT22;21906;50.812;7.132;2022-07-29T09:35:46;24.50;45.50
4107;DHT22;21906;50.812;7.132;2022-07-29T09:38:12;24.70;45.10
4107;DHT22;21906;50.812;7.132;2022-07-29T09:40:39;24.70;45.30
4107;DHT22;21906;50.812;7.132;2022-07-29T09:43:12;24.70;44.70
4107;DHT22;21906;50.812;7.132;2022-07-29T09:45:38;24.70;44.60
4107;DHT22;21906;50.812;7.132;2022-07-29T09:48:15;24.70;44.90
4107;DHT22;21906;50.812;7.132;2022-07-29T09:50:43;24.60;45.90
4107;DHT22;21906;50.812;7.132;2022-07-29T09:53:09;24.60;47.00
4107;DHT22;21906;50.812;7.132;2022-07-29T09:55:51;24.80;46.20
4107;DHT22;21906;50.812;7.132;2022-07-29T09:58:21;24.80;45.30
4107;DHT22;21906;50.812;7.132;2022-07-29T10:00:48;24.80;45.60
4107;DHT22;21906;50.812;7.132;2022-07-29T10:03:15;24.80;44.90
4107;DHT22;21906;50.812;7.132;2022-07-29T10:05:41;24.90;45.40
4107;DHT22;21906;50.812;7.132;2022-07-29T10:08:07;25.20;44.60
4107;DHT22;21906;50.812;7.132;2022-07-29T10:10:36;25.30;44.10
4107;DHT22;21906;50.812;7.132;2022-07-29T10:13:10;25.30;43.60
4107;DHT22;21906;50.812;7.132;2022-07-29T10:15:38;25.20;44.10
4107;DHT22;21906;50.812;7.132;2022-07-29T10:18:07;25.30;44.50
4107;DHT22;21906;50.812;7.132;2022-07-29T10:20:34;25.40;43.80
4107;DHT22;21906;50.812;7.132;2022-07-29T10:23:00;25.40;44.30
4107;DHT22;21906;50.812;7.132;2022-07-29T10:25:26;25.30;43.90
4107;DHT22;21906;50.812;7.132;2022-07-29T10:27:52;25.30;44.30
4107;DHT22;21906;50.812;7.132;2022-07-29T10:30:20;25.20;44.80
4107;DHT22;21906;50.812;7.132;2022-07-29T10:44:36;25.40;44.40
4107;DHT22;21906;50.812;7.132;2022-07-29T10:46:42;25.40;44.90
4107;DHT22;21906;50.812;7.132;2022-07-29T10:57:18;25.60;45.00
4107;DHT22;21906;50.812;7.132;2022-07-29T11:00:26;25.60;44.40
4107;DHT22;21906;50.812;7.132;2022-07-29T11:07:36;26.20;43.40
4107;DHT22;21906;50.812;7.132;2022-07-29T11:15:10;26.00;43.80
4107;DHT22;21906;50.812;7.132;2022-07-29T11:20:46;26.20;42.90
4107;DHT22;21906;50.812;7.132;2022-07-29T11:23:30;26.30;42.80
4107;DHT22;21906;50.812;7.132;2022-07-29T11:31:35;26.70;43.10
4107;DHT22;21906;50.812;7.132;2022-07-29T11:50:35;26.70;41.20
4107;DHT22;21906;50.812;7.132;2022-07-29T11:53:10;27.00;39.70
4107;DHT22;21906;50.812;7.132;2022-07-29T11:55:38;27.20;39.30
4107;DHT22;21906;50.812;7.132;2022-07-29T11:58:04;27.20;39.20
4107;DHT22;21906;50.812;7.132;2022-07-29T12:00:35;27.30;39.00
4107;DHT22;21906;50.812;7.132;2022-07-29T12:03:04;27.40;38.20
4107;DHT22;21906;50.812;7.132;2022-07-29T12:05:39;27.40;37.90
4107;DHT22;21906;50.812;7.132;2022-07-29T12:10:35;27.30;38.60
4107;DHT22;21906;50.812;7.132;2022-07-29T12:13:01;27.40;37.80
4107;DHT22;21906;50.812;7.132;2022-07-29T12:15:26;27.50;38.30
4107;DHT22;21906;50.812;7.132;2022-07-29T12:17:52;27.60;38.00
4107;DHT22;21906;50.812;7.132;2022-07-29T12:20:28;27.50;37.60
4107;DHT22;21906;50.812;7.132;2022-07-29T12:22:55;27.40;37.80
4107;DHT22;21906;50.812;7.132;2022-07-29T12:25:22;27.20;38.30
4107;DHT22;21906;50.812;7.132;2022-07-29T12:27:57;26.90;38.90
4107;DHT22;21906;50.812;7.132;2022-07-29T12:30:38;26.90;39.10
4107;DHT22;21906;50.812;7.132;2022-07-29T12:33:23;26.90;39.00
4107;DHT22;21906;50.812;7.132;2022-07-29T12:35:54;26.90;39.00
4107;DHT22;21906;50.812;7.132;2022-07-29T12:38:21;27.20;39.00
4107;DHT22;21906;50.812;7.132;2022-07-29T12:40:48;27.40;38.50
4107;DHT22;21906;50.812;7.132;2022-07-29T12:43:19;27.30;38.20
4107;DHT22;21906;50.812;7.132;2022-07-29T12:45:47;27.40;38.90
4107;DHT22;21906;50.812;7.132;2022-07-29T12:48:13;27.40;38.90
4107;DHT22;21906;50.812;7.132;2022-07-29T12:50:54;27.60;38.50
4107;DHT22;21906;50.812;7.132;2022-07-29T12:53:20;27.60;37.80
4107;DHT22;21906;50.812;7.132;2022-07-29T12:55:48;27.50;38.40
4107;DHT22;21906;50.812;7.132;2022-07-29T12:58:35;27.30;38.90
4107;DHT22;21906;50.812;7.132;2022-07-29T13:01:16;27.30;39.50
4107;DHT22;21906;50.812;7.132;2022-07-29T13:03:56;27.40;39.30
4107;DHT22;21906;50.812;7.132;2022-07-29T13:11:36;27.60;38.30
4107;DHT22;21906;50.812;7.132;2022-07-29T13:14:03;27.70;38.30
4107;DHT22;21906;50.812;7.132;2022-07-29T13:16:29;27.80;37.90
4107;DHT22;21906;50.812;7.132;2022-07-29T13:19:09;27.80;38.50
4107;DHT22;21906;50.812;7.132;2022-07-29T13:21:35;27.80;39.10
4107;DHT22;21906;50.812;7.132;2022-07-29T13:24:01;27.70;38.90
4107;DHT22;21906;50.812;7.132;2022-07-29T13:26:27;27.60;38.70
4107;DHT22;21906;50.812;7.132;2022-07-29T13:28:54;27.60;39.60
4107;DHT22;21906;50.812;7.132;2022-07-29T13:31:20;27.70;39.00
4107;DHT22;21906;50.812;7.132;2022-07-29T13:33:46;27.50;38.40
4107;DHT22;21906;50.812;7.132;2022-07-29T13:36:11;27.70;38.40
4107;DHT22;21906;50.812;7.132;2022-07-29T13:38:37;27.50;38.00
4107;DHT22;21906;50.812;7.132;2022-07-29T13:41:02;27.70;39.00
4107;DHT22;21906;50.812;7.132;2022-07-29T13:43:28;27.90;39.10
4107;DHT22;21906;50.812;7.132;2022-07-29T13:45:54;28.00;37.10
4107;DHT22;21906;50.812;7.132;2022-07-29T13:48:19;28.20;37.60
4107;DHT22;21906;50.812;7.132;2022-07-29T13:50:45;28.10;36.80
4107;DHT22;21906;50.812;7.132;2022-07-29T13:53:12;28.40;36.70
4107;DHT22;21906;50.812;7.132;2022-07-29T13:55:38;28.50;35.60
4107;DHT22;21906;50.812;7.132;2022-07-29T13:58:04;28.50;35.50
4107;DHT22;21906;50.812;7.132;2022-07-29T14:00:30;28.60;36.40
4107;DHT22;21906;50.812;7.132;2022-07-29T14:02:56;28.70;35.90
4107;DHT22;21906;50.812;7.132;2022-07-29T14:05:22;28.90;35.60
4107;DHT22;21906;50.812;7.132;2022-07-29T14:07:47;28.90;35.70
4107;DHT22;21906;50.812;7.132;2022-07-29T14:10:13;28.90;35.40
4107;DHT22;21906;50.812;7.132;2022-07-29T14:12:39;29.10;35.00
4107;DHT22;21906;50.812;7.132;2022-07-29T14:15:07;29.10;35.00
4107;DHT22;21906;50.812;7.132;2022-07-29T14:17:33;29.20;34.10
4107;DHT22;21906;50.812;7.132;2022-07-29T14:19:59;29.10;34.00
4107;DHT22;21906;50.812;7.132;2022-07-29T14:22:25;29.20;34.40
4107;DHT22;21906;50.812;7.132;2022-07-29T14:24:50;29.30;34.00
4107;DHT22;21906;50.812;7.132;2022-07-29T14:27:16;29.50;33.60
4107;DHT22;21906;50.812;7.132;2022-07-29T14:29:42;29.80;32.70
4107;DHT22;21906;50.812;7.132;2022-07-29T14:32:09;29.90;33.00
4107;DHT22;21906;50.812;7.132;2022-07-29T14:34:40;29.90;33.60
4107;DHT22;21906;50.812;7.132;2022-07-29T14:37:06;30.00;33.20
4107;DHT22;21906;50.812;7.132;2022-07-29T14:39:32;30.30;33.20
4107;DHT22;21906;50.812;7.132;2022-07-29T14:41:58;30.50;33.50
4107;DHT22;21906;50.812;7.132;2022-07-29T14:44:24;30.60;33.60
4107;DHT22;21906;50.812;7.132;2022-07-29T14:46:54;30.60;34.50
4107;DHT22;21906;50.812;7.132;2022-07-29T14:49:20;30.80;33.90
4107;DHT22;21906;50.812;7.132;2022-07-29T14:51:45;30.50;34.20
4107;DHT22;21906;50.812;7.132;2022-07-29T14:54:11;30.20;34.70
4107;DHT22;21906;50.812;7.132;2022-07-29T14:56:36;29.90;35.30
4107;DHT22;21906;50.812;7.132;2022-07-29T14:59:02;30.00;35.60
4107;DHT22;21906;50.812;7.132;2022-07-29T15:01:28;30.40;35.20
4107;DHT22;21906;50.812;7.132;2022-07-29T15:03:54;30.90;34.20
4107;DHT22;21906;50.812;7.132;2022-07-29T15:06:20;31.60;33.20
4107;DHT22;21906;50.812;7.132;2022-07-29T15:08:45;32.40;32.20
4107;DHT22;21906;50.812;7.132;2022-07-29T15:11:11;33.20;31.10
4107;DHT22;21906;50.812;7.132;2022-07-29T15:13:36;33.90;29.70
4107;DHT22;21906;50.812;7.132;2022-07-29T15:16:02;34.00;29.20
4107;DHT22;21906;50.812;7.132;2022-07-29T15:18:29;34.10;29.10
4107;DHT22;21906;50.812;7.132;2022-07-29T15:20:55;34.60;28.60
4107;DHT22;21906;50.812;7.132;2022-07-29T15:23:21;34.90;28.10
4107;DHT22;21906;50.812;7.132;2022-07-29T15:25:46;35.40;27.60
4107;DHT22;21906;50.812;7.132;2022-07-29T15:28:12;35.70;27.80
4107;DHT22;21906;50.812;7.132;2022-07-29T15:30:38;36.40;26.70
4107;DHT22;21906;50.812;7.132;2022-07-29T15:33:08;36.90;26.00
4107;DHT22;21906;50.812;7.132;2022-07-29T15:35:37;37.10;25.70
4107;DHT22;21906;50.812;7.132;2022-07-29T15:38:03;36.50;26.00
4107;DHT22;21906;50.812;7.132;2022-07-29T15:40:28;36.30;27.10
4107;DHT22;21906;50.812;7.132;2022-07-29T15:42:54;36.50;26.60
4107;DHT22;21906;50.812;7.132;2022-07-29T15:45:20;37.00;25.90
4107;DHT22;21906;50.812;7.132;2022-07-29T15:47:45;37.50;25.50
4107;DHT22;21906;50.812;7.132;2022-07-29T15:50:11;38.20;24.70
4107;DHT22;21906;50.812;7.132;2022-07-29T15:52:41;37.90;24.50
4107;DHT22;21906;50.812;7.132;2022-07-29T15:55:07;37.40;25.30
4107;DHT22;21906;50.812;7.132;2022-07-29T15:57:33;37.70;24.70
4107;DHT22;21906;50.812;7.132;2022-07-29T15:59:58;36.80;25.50
4107;DHT22;21906;50.812;7.132;2022-07-29T16:02:24;37.30;25.20
4107;DHT22;21906;50.812;7.132;2022-07-29T16:04:50;37.80;24.60
4107;DHT22;21906;50.812;7.132;2022-07-29T16:07:16;37.60;24.50
4107;DHT22;21906;50.812;7.132;2022-07-29T16:09:42;37.40;25.40
4107;DHT22;21906;50.812;7.132;2022-07-29T16:12:08;37.80;24.90
4107;DHT22;21906;50.812;7.132;2022-07-29T16:14:34;38.90;23.10
4107;DHT22;21906;50.812;7.132;2022-07-29T16:17:00;39.20;22.70
4107;DHT22;21906;50.812;7.132;2022-07-29T16:19:29;39.50;23.10
4107;DHT22;21906;50.812;7.132;2022-07-29T16:21:55;39.30;22.60
4107;DHT22;21906;50.812;7.132;2022-07-29T16:24:21;39.50;22.00
4107;DHT22;21906;50.812;7.132;2022-07-29T16:26:48;39.30;22.10
4107;DHT22;21906;50.812;7.132;2022-07-29T16:29:14;39.80;22.00
4107;DHT22;21906;50.812;7.132;2022-07-29T16:31:42;40.10;21.40
4107;DHT22;21906;50.812;7.132;2022-07-29T16:34:08;41.10;21.40
4107;DHT22;21906;50.812;7.132;2022-07-29T16:36:33;41.90;19.70
4107;DHT22;21906;50.812;7.132;2022-07-29T16:38:59;42.10;19.30
4107;DHT22;21906;50.812;7.132;2022-07-29T16:41:25;42.50;19.00
4107;DHT22;21906;50.812;7.132;2022-07-29T16:43:51;41.00;20.20
4107;DHT22;21906;50.812;7.132;2022-07-29T16:46:16;39.20;21.60
4107;DHT22;21906;50.812;7.132;2022-07-29T16:48:42;37.10;23.70
4107;DHT22;21906;50.812;7.132;2022-07-29T16:51:08;35.40;25.40
4107;DHT22;21906;50.812;7.132;2022-07-29T16:53:34;36.30;24.90
4107;DHT22;21906;50.812;7.132;2022-07-29T16:55:59;38.00;22.70
4107;DHT22;21906;50.812;7.132;2022-07-29T16:58:25;38.20;22.40
4107;DHT22;21906;50.812;7.132;2022-07-29T17:00:51;38.00;22.90